Time;durP1;ratioP1;P1;durP2;ratioP2;P2;SDS_P1;SDS_P2;PMS_P1;PMS_P2;Temp;Humidity;BMP_temperature;BMP_pressure;BME280_temperature;BME280_humidity;BME280_pressure;Samples;Min_cycle;Max_cycle;Signal;HPM_P1;HPM_P2
2023/12/03 00:01:20;;;;;;;62.30;26.30;;;;;;;-1.68;89.03;99251.98;217871;1257;139629;-69
2023/12/03 00:06:35;;;;;;;65.70;25.30;;;;;;;-1.68;89.25;99253.22;218268;1257;234550;-68
2023/12/03 00:11:43;;;;;;;61.80;26.60;;;;;;;-1.66;89.28;99254.20;217723;1260;139934;-67
2023/12/03 00:16:48;;;;;;;53.40;25.40;;;;;;;-1.64;89.78;99254.84;217802;1259;139466;-68
2023/12/03 00:22:00;;;;;;;60.90;27.20;;;;;;;-1.67;89.30;99250.60;218089;1257;140039;-68
2023/12/03 00:27:06;;;;;;;57.80;26.20;;;;;;;-1.72;89.31;99254.76;217696;1262;139545;-69
2023/12/03 00:32:11;;;;;;;51.50;25.80;;;;;;;-1.75;89.51;99254.41;218171;1262;140216;-68
2023/12/03 00:37:17;;;;;;;69.40;29.00;;;;;;;-1.79;89.42;99260.91;218225;1262;139567;-68
2023/12/03 00:42:23;;;;;;;83.00;40.80;;;;;;;-1.77;89.69;99274.33;218305;1260;139738;-68
2023/12/03 00:47:29;;;;;;;50.60;23.80;;;;;;;-1.77;89.56;99286.39;218767;1260;140575;-66
2023/12/03 00:52:34;;;;;;;51.00;20.50;;;;;;;-1.79;89.52;99289.52;219693;1260;140041;-67
2023/12/03 00:57:39;;;;;;;53.00;24.40;;;;;;;-1.82;89.54;99295.23;218746;1261;141309;-67
2023/12/03 01:02:44;;;;;;;48.20;19.80;;;;;;;-1.84;89.63;99304.52;217863;1262;139490;-70
2023/12/03 01:07:50;;;;;;;46.40;23.70;;;;;;;-1.90;89.24;99308.14;219309;1257;139898;-67
2023/12/03 01:12:55;;;;;;;43.40;19.60;;;;;;;-1.95;89.34;99311.63;218250;1258;139739;-66
2023/12/03 01:18:00;;;;;;;47.30;19.80;;;;;;;-1.94;89.42;99310.37;220112;1257;139253;-68
2023/12/03 01:23:05;;;;;;;49.90;27.50;;;;;;;-1.93;89.50;99314.95;218332;1259;139929;-71
2023/12/03 01:28:11;;;;;;;48.40;18.30;;;;;;;-1.94;89.54;99313.36;219100;1257;139489;-70
2023/12/03 01:33:15;;;;;;;38.10;19.40;;;;;;;-1.95;89.56;99323.23;218289;1263;139802;-69
2023/12/03 01:38:21;;;;;;;44.50;22.90;;;;;;;-1.95;89.53;99324.73;218124;1257;139732;-70
2023/12/03 01:43:27;;;;;;;49.40;23.00;;;;;;;-1.92;89.89;99326.33;218037;1257;139874;-73
2023/12/03 01:48:32;;;;;;;54.60;24.10;;;;;;;-1.93;89.67;99325.77;218544;1262;141060;-74
2023/12/03 01:53:39;;;;;;;44.60;22.20;;;;;;;-1.97;89.63;99336.48;218283;1262;140727;-70
2023/12/03 01:58:44;;;;;;;42.20;18.20;;;;;;;-2.00;89.75;99336.96;217829;1257;139616;-68
2023/12/03 02:03:48;;;;;;;43.00;20.30;;;;;;;-2.01;89.89;99339.52;218252;1257;139444;-72
2023/12/03 02:08:54;;;;;;;43.90;22.90;;;;;;;-2.01;90.09;99346.48;218733;1256;139202;-72
2023/12/03 02:13:58;;;;;;;57.60;30.20;;;;;;;-2.02;89.92;99346.92;218373;1258;139405;-69
2023/12/03 02:19:03;;;;;;;74.70;45.60;;;;;;;-2.01;90.13;99353.81;219191;1257;139507;-68
2023/12/03 02:24:08;;;;;;;41.30;20.20;;;;;;;-2.03;89.82;99362.52;219449;1257;140134;-69
2023/12/03 02:29:12;;;;;;;38.10;22.80;;;;;;;-2.03;90.02;99363.25;219278;1255;139564;-67
2023/12/03 02:34:17;;;;;;;34.90;17.20;;;;;;;-2.02;90.23;99366.11;218252;1255;140226;-68
2023/12/03 02:39:21;;;;;;;26.10;11.40;;;;;;;-2.03;89.96;99368.92;219951;1257;139954;-68
2023/12/03 02:44:25;;;;;;;41.10;20.30;;;;;;;-2.06;89.87;99373.72;218518;1258;140400;-67
2023/12/03 02:49:31;;;;;;;34.90;18.50;;;;;;;-2.05;90.03;99383.45;220348;1259;139755;-68
2023/12/03 02:54:38;;;;;;;38.60;18.30;;;;;;;-2.03;90.11;99381.53;220610;1257;150915;-72
2023/12/03 02:59:43;;;;;;;32.10;18.30;;;;;;;-1.97;90.39;99389.60;220375;1257;139634;-74
2023/12/03 03:04:48;;;;;;;33.60;18.00;;;;;;;-1.95;90.19;99402.02;219912;1254;140107;-72
2023/12/03 03:09:53;;;;;;;31.00;17.10;;;;;;;-1.94;90.12;99404.59;219641;1254;139879;-70
2023/12/03 03:14:57;;;;;;;37.80;18.60;;;;;;;-1.92;90.07;99404.05;220149;1254;139750;-69
2023/12/03 03:20:01;;;;;;;42.00;19.10;;;;;;;-1.88;90.10;99420.02;219260;1255;141224;-69
2023/12/03 03:25:07;;;;;;;40.00;19.30;;;;;;;-1.87;90.23;99425.44;219246;1255;141089;-69
2023/12/03 03:30:13;;;;;;;29.70;18.10;;;;;;;-1.89;90.16;99423.38;217777;1257;139946;-71
2023/12/03 03:35:16;;;;;;;30.90;18.70;;;;;;;-1.91;90.11;99424.84;218591;1256;139684;-71
2023/12/03 03:40:21;;;;;;;38.50;19.20;;;;;;;-1.92;90.21;99437.64;218732;1257;140381;-71
2023/12/03 03:45:26;;;;;;;38.10;22.60;;;;;;;-1.97;90.25;99438.51;218447;1256;139946;-71
2023/12/03 03:50:31;;;;;;;40.60;21.70;;;;;;;-1.96;90.44;99442.27;218892;1254;140328;-71
2023/12/03 03:55:36;;;;;;;43.80;23.30;;;;;;;-1.95;90.50;99440.25;218484;1258;140520;-69
2023/12/03 04:00:41;;;;;;;35.60;17.90;;;;;;;-1.97;90.22;99447.52;217847;1255;139803;-68
2023/12/03 04:05:45;;;;;;;30.90;17.10;;;;;;;-1.98;90.46;99446.84;218666;1254;139715;-68
2023/12/03 04:10:50;;;;;;;36.70;19.30;;;;;;;-2.05;90.15;99452.59;218235;1254;139857;-71
2023/12/03 04:15:55;;;;;;;35.70;18.60;;;;;;;-2.12;90.07;99454.84;219069;1254;140426;-70
2023/12/03 04:21:01;;;;;;;27.70;15.70;;;;;;;-2.15;90.08;99461.98;218676;1254;139581;-71
2023/12/03 04:26:08;;;;;;;31.40;15.70;;;;;;;-2.17;90.24;99473.19;218902;1254;140055;-73
2023/12/03 04:31:25;;;;;;;30.50;17.10;;;;;;;-2.18;90.08;99481.83;219240;1254;139702;-73
2023/12/03 04:36:30;;;;;;;28.00;17.00;;;;;;;-2.23;90.19;99490.66;219108;1254;140056;-71
2023/12/03 04:41:36;;;;;;;28.40;15.10;;;;;;;-2.24;90.08;99498.04;219150;1254;139353;-72
2023/12/03 04:46:42;;;;;;;34.30;18.10;;;;;;;-2.24;90.02;99501.75;219699;1254;140792;-71
2023/12/03 04:51:46;;;;;;;40.90;19.70;;;;;;;-2.25;90.03;99506.41;220693;1256;140975;-72
2023/12/03 04:56:52;;;;;;;31.00;15.30;;;;;;;-2.23;89.85;99507.27;219882;1254;140535;-72
2023/12/03 05:01:56;;;;;;;26.60;15.20;;;;;;;-2.26;89.49;99510.72;220846;1254;140166;-72
2023/12/03 05:07:01;;;;;;;28.50;17.10;;;;;;;-2.35;89.30;99519.62;218799;1254;139811;-65
2023/12/03 05:12:06;;;;;;;44.00;21.80;;;;;;;-2.44;89.34;99526.17;219111;1254;140287;-66
2023/12/03 05:17:11;;;;;;;35.50;20.40;;;;;;;-2.45;89.61;99536.39;219178;1254;140609;-65
2023/12/03 05:22:16;;;;;;;34.00;17.50;;;;;;;-2.45;89.62;99542.30;218070;1256;140242;-67
2023/12/03 05:27:20;;;;;;;35.80;20.60;;;;;;;-2.46;89.56;99548.56;218334;1257;140777;-69
2023/12/03 05:32:24;;;;;;;28.70;15.40;;;;;;;-2.50;89.59;99553.98;219606;1254;140661;-71
2023/12/03 05:37:29;;;;;;;36.90;20.30;;;;;;;-2.54;89.56;99561.60;217792;1254;139950;-68
2023/12/03 05:42:33;;;;;;;29.10;15.70;;;;;;;-2.55;89.57;99566.55;218987;1254;150708;-68
2023/12/03 05:47:39;;;;;;;32.60;17.40;;;;;;;-2.56;89.57;99577.96;219053;1258;139685;-68
2023/12/03 05:52:45;;;;;;;35.40;18.10;;;;;;;-2.58;89.55;99576.05;218955;1254;139860;-68
2023/12/03 05:57:49;;;;;;;36.90;16.20;;;;;;;-2.59;89.58;99579.66;219789;1254;140382;-70
2023/12/03 06:02:53;;;;;;;22.30;13.00;;;;;;;-2.57;89.81;99588.29;218491;1253;140402;-69
2023/12/03 06:07:58;;;;;;;34.40;17.10;;;;;;;-2.60;89.41;99601.10;219319;1257;141142;-68
2023/12/03 06:13:05;;;;;;;28.80;17.70;;;;;;;-2.63;89.40;99606.52;219375;1253;140668;-69
2023/12/03 06:18:10;;;;;;;26.40;14.40;;;;;;;-2.59;89.84;99608.88;218223;1254;140771;-66
2023/12/03 06:23:15;;;;;;;31.60;18.50;;;;;;;-2.59;89.56;99613.55;219664;1253;140135;-66
2023/12/03 06:28:22;;;;;;;34.20;16.70;;;;;;;-2.57;89.76;99614.89;218171;1257;140153;-66
2023/12/03 06:33:26;;;;;;;33.30;17.20;;;;;;;-2.60;89.56;99614.02;217764;1254;744155;-68
2023/12/03 06:38:32;;;;;;;27.60;15.70;;;;;;;-2.61;89.56;99617.55;218999;1253;140079;-68
2023/12/03 06:43:38;;;;;;;31.90;15.30;;;;;;;-2.67;89.55;99629.16;219556;1253;140346;-67
2023/12/03 06:48:42;;;;;;;34.40;20.20;;;;;;;-2.67;89.85;99635.02;219256;1254;150558;-70
2023/12/03 06:53:51;;;;;;;33.70;17.60;;;;;;;-2.63;89.72;99640.11;220728;1254;141882;-67
2023/12/03 06:58:56;;;;;;;35.20;18.40;;;;;;;-2.61;89.62;99640.94;220896;1253;140818;-67
2023/12/03 07:04:00;;;;;;;24.10;15.00;;;;;;;-2.53;89.87;99644.92;220855;1254;141865;-67
2023/12/03 07:09:05;;;;;;;27.70;15.00;;;;;;;-2.43;89.80;99652.09;220994;1253;140841;-68
2023/12/03 07:14:30;;;;;;;31.90;17.80;;;;;;;-2.33;89.86;99658.44;221016;1253;139853;-69
2023/12/03 07:19:35;;;;;;;36.00;19.80;;;;;;;-2.22;89.86;99671.58;219915;1253;140764;-69
2023/12/03 07:24:42;;;;;;;36.90;16.70;;;;;;;-2.11;89.85;99678.98;218781;1253;141507;-69
2023/12/03 07:29:50;;;;;;;31.20;15.80;;;;;;;-2.05;89.52;99687.04;218584;1254;139890;-69
2023/12/03 07:34:58;;;;;;;35.00;19.30;;;;;;;-1.99;89.63;99694.71;219245;1253;139977;-70
2023/12/03 07:40:04;;;;;;;39.00;18.20;;;;;;;-1.96;89.60;99703.45;217931;1258;141243;-71
2023/12/03 07:45:08;;;;;;;36.20;18.50;;;;;;;-1.93;89.55;99712.05;219583;1253;139566;-71
2023/12/03 07:50:12;;;;;;;41.90;20.30;;;;;;;-1.93;89.52;99709.58;218312;1253;143241;-72
2023/12/03 07:55:17;;;;;;;33.60;17.80;;;;;;;-1.88;89.56;99706.47;218447;1257;140008;-70
2023/12/03 08:00:22;;;;;;;35.50;16.80;;;;;;;-1.87;89.55;99712.95;219254;1254;140189;-69
2023/12/03 08:05:27;;;;;;;32.50;16.90;;;;;;;-1.87;89.49;99719.21;218559;1254;140272;-66
2023/12/03 08:10:32;;;;;;;34.90;18.10;;;;;;;-1.89;89.63;99726.26;219067;1253;139617;-67
2023/12/03 08:15:37;;;;;;;35.30;16.40;;;;;;;-1.87;89.56;99732.61;219030;1254;139866;-67
2023/12/03 08:20:41;;;;;;;33.60;16.90;;;;;;;-1.86;89.66;99738.64;218203;1256;139579;-72
2023/12/03 08:25:49;;;;;;;35.00;16.70;;;;;;;-1.83;89.77;99748.02;218828;1253;140816;-69
2023/12/03 08:30:56;;;;;;;;;;;;;;;-1.76;89.95;99756.59;219548;1256;139822;-70
2023/12/03 08:36:01;;;;;;;31.50;18.90;;;;;;;-1.68;90.06;99760.88;219361;1254;126155;-68
2023/12/03 08:41:05;;;;;;;29.70;18.00;;;;;;;-1.61;89.61;99765.95;219131;1255;139902;-69
2023/12/03 08:46:10;;;;;;;35.30;19.20;;;;;;;-1.60;89.64;99778.67;220740;1253;139780;-69
2023/12/03 08:51:15;;;;;;;34.50;18.80;;;;;;;-1.53;89.91;99784.02;221056;1253;139683;-69
2023/12/03 08:56:20;;;;;;;36.50;21.60;;;;;;;-1.41;89.92;99790.15;220750;1254;141331;-69
2023/12/03 09:01:24;;;;;;;39.90;17.90;;;;;;;-1.33;89.84;99797.69;220702;1253;140225;-71
2023/12/03 09:06:30;;;;;;;32.10;16.10;;;;;;;-1.24;89.73;99808.13;219220;1254;139493;-72
2023/12/03 09:11:35;;;;;;;29.40;17.00;;;;;;;-1.13;89.68;99808.70;220332;1254;140072;-70
2023/12/03 09:16:41;;;;;;;29.50;17.50;;;;;;;-0.96;90.08;99812.52;218542;1254;140582;-71
2023/12/03 09:21:49;;;;;;;28.50;17.50;;;;;;;-0.72;89.99;99815.09;217988;1254;140818;-75
2023/12/03 09:26:55;;;;;;;30.10;17.30;;;;;;;-0.49;89.69;99812.92;218794;1253;141030;-68
2023/12/03 09:32:04;;;;;;;27.70;15.10;;;;;;;-0.28;89.65;99815.96;218369;1254;139447;-71
2023/12/03 09:37:09;;;;;;;23.70;13.20;;;;;;;-0.15;89.57;99821.86;219354;1254;140235;-69
2023/12/03 09:42:18;;;;;;;28.50;15.00;;;;;;;-0.02;89.26;99824.52;218147;1254;140925;-74
2023/12/03 09:47:24;;;;;;;23.50;13.70;;;;;;;0.12;89.47;99828.38;218449;1254;139952;-71
2023/12/03 09:52:31;;;;;;;22.80;12.70;;;;;;;0.29;89.17;99833.54;217962;1254;140812;-70
2023/12/03 09:57:42;;;;;;;17.00;11.90;;;;;;;0.45;89.40;99839.00;218449;1254;236244;-68
2023/12/03 10:02:52;;;;;;;18.00;11.70;;;;;;;0.53;89.02;99846.21;218259;1254;140821;-71
2023/12/03 10:07:58;;;;;;;21.10;12.60;;;;;;;0.51;88.36;99842.25;219036;1254;139588;-70
2023/12/03 10:13:04;;;;;;;14.50;9.60;;;;;;;0.50;88.38;99851.79;218208;1259;143994;-71
2023/12/03 10:18:16;;;;;;;13.10;8.90;;;;;;;0.48;88.37;99858.64;218220;1254;139061;-72
2023/12/03 10:23:23;;;;;;;14.50;9.30;;;;;;;0.40;88.31;99866.19;218537;1253;139568;-73
2023/12/03 10:28:29;;;;;;;17.60;12.90;;;;;;;0.29;88.33;99873.97;219171;1257;139462;-70
2023/12/03 10:33:38;;;;;;;12.20;8.10;;;;;;;0.26;88.46;99878.55;218695;1253;140247;-69
2023/12/03 10:38:43;;;;;;;12.40;9.30;;;;;;;0.19;88.37;99882.90;218386;1259;140009;-73
2023/12/03 10:43:51;;;;;;;11.10;7.80;;;;;;;0.17;87.91;99885.35;218340;1256;139424;-71
2023/12/03 10:48:57;;;;;;;15.70;9.90;;;;;;;0.16;88.10;99888.30;219938;1254;140054;-71
2023/12/03 10:54:04;;;;;;;12.60;9.00;;;;;;;0.16;87.72;99901.56;219431;1254;140076;-73
2023/12/03 10:59:11;;;;;;;15.90;10.60;;;;;;;0.01;87.15;99911.55;219627;1254;140516;-71
2023/12/03 11:04:29;;;;;;;12.90;9.60;;;;;;;-0.14;86.86;99920.15;218252;1257;141470;-69
2023/12/03 11:09:40;;;;;;;16.70;10.30;;;;;;;-0.21;87.06;99929.63;219767;1254;140159;-70
2023/12/03 11:14:56;;;;;;;14.10;9.00;;;;;;;-0.27;86.69;99942.61;218922;1253;141272;-70
2023/12/03 11:20:06;;;;;;;12.00;8.90;;;;;;;-0.25;86.85;99950.96;218369;1254;139495;-73
2023/12/03 11:25:18;;;;;;;16.10;9.50;;;;;;;-0.24;86.59;99958.63;218277;1254;140096;-68
2023/12/03 11:30:42;;;;;;;11.10;7.20;;;;;;;-0.21;86.73;99969.77;218095;1254;140151;-64
2023/12/03 11:35:51;;;;;;;12.30;7.70;;;;;;;-0.18;86.10;99977.02;218038;1254;140326;-70
2023/12/03 11:40:57;;;;;;;12.80;7.60;;;;;;;-0.08;86.39;99980.00;218373;1256;140068;-68
2023/12/03 11:46:03;;;;;;;12.30;8.90;;;;;;;0.02;86.08;99982.55;217988;1254;139763;-68
2023/12/03 11:51:33;;;;;;;10.80;8.20;;;;;;;0.12;85.82;99984.83;218713;1254;139733;-68
2023/12/03 11:56:40;;;;;;;14.30;9.00;;;;;;;0.17;85.20;99987.29;217715;1261;139841;-75
2023/12/03 12:01:47;;;;;;;16.50;11.30;;;;;;;0.25;85.43;99988.82;217308;1260;139584;-73
2023/12/03 12:06:53;;;;;;;12.30;8.50;;;;;;;0.20;84.59;99997.13;217487;1259;139651;-70
2023/12/03 12:12:00;;;;;;;17.50;13.00;;;;;;;0.03;84.56;100000.09;217510;1262;139697;-69
2023/12/03 12:17:10;;;;;;;16.10;10.40;;;;;;;-0.11;84.37;100006.98;218088;1262;140379;-70
2023/12/03 12:22:35;;;;;;;15.90;11.20;;;;;;;-0.23;84.30;100010.34;217177;1259;143905;-72
2023/12/03 12:27:44;;;;;;;15.10;9.30;;;;;;;-0.32;84.36;100016.16;216312;1264;142070;-73
2023/12/03 12:32:54;;;;;;;16.90;9.10;;;;;;;-0.37;84.55;100016.04;217388;1263;140982;-74
2023/12/03 12:38:08;;;;;;;17.00;11.30;;;;;;;-0.50;83.63;100022.77;216809;1265;140142;-71
2023/12/03 12:43:36;;;;;;;22.20;11.70;;;;;;;-0.53;84.17;100027.96;217744;1262;140092;-75
2023/12/03 12:48:50;;;;;;;20.60;11.20;;;;;;;-0.51;84.52;100033.11;216130;1270;141458;-71
2023/12/03 12:54:03;;;;;;;16.70;10.10;;;;;;;-0.56;84.39;100034.65;216748;1268;140195;-70
2023/12/03 12:59:14;;;;;;;14.80;7.40;;;;;;;-0.58;84.20;100033.73;216868;1268;140288;-69
2023/12/03 13:04:30;;;;;;;18.60;10.60;;;;;;;-0.62;84.14;100039.18;216331;1268;140786;-68
2023/12/03 13:09:40;;;;;;;13.80;8.40;;;;;;;-0.60;84.72;100034.90;216814;1262;142267;-69
2023/12/03 13:14:44;;;;;;;22.30;15.20;;;;;;;-0.55;84.31;100036.69;217327;1262;140644;-73
2023/12/03 13:19:50;;;;;;;18.60;10.20;;;;;;;-0.44;84.35;100036.45;216997;1262;139990;-71
2023/12/03 13:24:55;;;;;;;12.50;8.70;;;;;;;-0.36;83.85;100039.45;217239;1263;140728;-68
2023/12/03 13:30:01;;;;;;;19.10;11.10;;;;;;;-0.44;83.94;100045.33;217492;1261;141454;-69
2023/12/03 13:35:14;;;;;;;17.80;9.40;;;;;;;-0.58;83.50;100051.66;216665;1264;141286;-70
2023/12/03 13:40:22;;;;;;;14.90;10.40;;;;;;;-0.71;83.60;100060.48;217419;1260;140089;-72
2023/12/03 13:45:30;;;;;;;12.60;8.00;;;;;;;-0.77;83.53;100067.03;217877;1254;140156;-70
2023/12/03 13:50:37;;;;;;;16.20;9.30;;;;;;;-0.84;83.40;100066.13;218787;1254;139777;-70
2023/12/03 13:55:41;;;;;;;;;;;;;;;-0.96;83.09;100073.87;218145;1254;139716;-70
2023/12/03 14:00:46;;;;;;;22.60;10.50;;;;;;;-1.15;82.83;100073.03;219297;1254;126614;-69
2023/12/03 14:05:53;;;;;;;18.00;9.40;;;;;;;-1.30;82.97;100077.59;218626;1257;139534;-71
2023/12/03 14:11:01;;;;;;;18.30;10.30;;;;;;;-1.47;82.82;100080.11;218426;1254;139882;-68
2023/12/03 14:16:09;;;;;;;16.30;10.10;;;;;;;-1.64;82.71;100091.54;218449;1254;140051;-69
2023/12/03 14:21:18;;;;;;;20.10;13.20;;;;;;;-1.87;82.82;100098.58;217955;1257;140834;-69
2023/12/03 14:26:30;;;;;;;13.90;8.40;;;;;;;-2.08;83.53;100112.04;218694;1256;140121;-72
2023/12/03 14:31:44;;;;;;;27.00;12.70;;;;;;;-2.15;83.81;100118.45;219336;1254;139850;-71
2023/12/03 14:36:48;;;;;;;25.70;15.40;;;;;;;-2.26;83.46;100127.60;218672;1254;139994;-70
2023/12/03 14:41:54;;;;;;;24.10;15.30;;;;;;;-2.44;83.50;100133.17;218252;1254;140293;-69
2023/12/03 14:46:59;;;;;;;18.20;12.20;;;;;;;-2.49;83.82;100143.31;218433;1258;140294;-76
2023/12/03 14:52:04;;;;;;;18.90;11.70;;;;;;;-2.57;83.82;100152.52;219043;1254;141465;-74
2023/12/03 14:57:10;;;;;;;29.90;16.30;;;;;;;-2.70;83.65;100158.42;218076;1254;142973;-70
2023/12/03 15:02:18;;;;;;;26.80;13.80;;;;;;;-2.80;84.02;100165.41;218332;1257;140161;-70
2023/12/03 15:07:24;;;;;;;26.10;14.60;;;;;;;-2.85;84.30;100165.23;218465;1256;141031;-68
2023/12/03 15:12:30;;;;;;;24.80;15.90;;;;;;;-2.87;84.19;100172.01;219004;1254;142509;-70
2023/12/03 15:17:39;;;;;;;25.90;16.80;;;;;;;-2.96;84.32;100176.26;218935;1254;140529;-70
2023/12/03 15:22:45;;;;;;;37.30;20.60;;;;;;;-2.96;84.57;100186.17;218503;1254;141551;-73
2023/12/03 15:27:51;;;;;;;24.00;16.60;;;;;;;-2.95;84.61;100187.87;217954;1254;140125;-71
2023/12/03 15:33:04;;;;;;;24.00;14.80;;;;;;;-2.93;84.82;100184.17;219386;1254;140163;-74
2023/12/03 15:38:10;;;;;;;23.00;15.10;;;;;;;-2.92;84.91;100188.29;218136;1254;140975;-72
2023/12/03 15:43:24;;;;;;;17.80;10.70;;;;;;;-2.90;84.90;100192.95;218246;1254;140114;-73
2023/12/03 15:48:41;;;;;;;17.40;10.20;;;;;;;-2.91;84.81;100189.77;218709;1254;140468;-70
2023/12/03 15:53:55;;;;;;;15.90;9.60;;;;;;;-2.96;84.69;100188.64;219472;1255;139924;-69
2023/12/03 15:59:01;;;;;;;22.10;13.40;;;;;;;-3.02;84.83;100179.60;218030;1254;143209;-71
2023/12/03 16:04:07;;;;;;;19.50;13.80;;;;;;;-3.11;84.42;100187.00;218787;1254;140484;-72
2023/12/03 16:09:14;;;;;;;17.80;11.70;;;;;;;-3.15;84.64;100187.00;218431;1254;140273;-75
2023/12/03 16:14:26;;;;;;;17.90;11.70;;;;;;;-3.13;85.05;100193.26;218744;1254;140553;-75
2023/12/03 16:19:34;;;;;;;17.70;11.20;;;;;;;-3.09;85.10;100193.23;218092;1255;142155;-73
2023/12/03 16:24:41;;;;;;;20.50;14.40;;;;;;;-3.04;85.11;100203.59;218773;1255;141780;-74
2023/12/03 16:29:49;;;;;;;20.00;12.70;;;;;;;-2.99;85.19;100204.07;218521;1257;140358;-77
2023/12/03 16:34:55;;;;;;;21.20;12.20;;;;;;;-2.96;85.19;100207.94;218050;1257;140367;-72
2023/12/03 16:40:00;;;;;;;23.30;13.70;;;;;;;-2.97;85.17;100214.48;219152;1257;141087;-71
2023/12/03 16:45:06;;;;;;;20.70;13.00;;;;;;;-2.97;85.22;100216.89;219874;1257;140466;-72
2023/12/03 16:50:11;;;;;;;23.10;12.10;;;;;;;-2.94;85.47;100212.28;219032;1257;141987;-72
2023/12/03 16:55:17;;;;;;;21.80;14.00;;;;;;;-2.91;85.34;100214.40;218917;1257;141566;-72
2023/12/03 17:00:22;;;;;;;17.20;10.80;;;;;;;-2.92;85.21;100212.04;219026;1259;140297;-75
2023/12/03 17:05:28;;;;;;;18.40;10.60;;;;;;;-2.94;85.12;100212.39;218745;1257;140714;-76
2023/12/03 17:10:34;;;;;;;32.80;15.00;;;;;;;-2.93;85.35;100210.60;218105;1259;140188;-72
2023/12/03 17:15:38;;;;;;;55.80;26.80;;;;;;;-2.92;85.37;100219.56;218170;1259;208797;-76
2023/12/03 17:20:43;;;;;;;22.50;15.80;;;;;;;-2.94;85.42;100220.05;218645;1254;140609;-73
2023/12/03 17:25:54;;;;;;;17.50;11.60;;;;;;;-2.96;85.38;100217.28;217930;1258;140825;-72
2023/12/03 17:31:01;;;;;;;22.30;15.40;;;;;;;-2.96;85.70;100215.40;217896;1260;139906;-71
2023/12/03 17:36:10;;;;;;;18.50;11.50;;;;;;;-2.97;85.64;100215.11;218656;1254;141276;-70
2023/12/03 17:41:18;;;;;;;18.90;11.50;;;;;;;-2.98;85.50;100210.89;218006;1254;139745;-73
2023/12/03 17:46:22;;;;;;;21.40;11.60;;;;;;;-3.02;85.51;100214.50;218024;1254;141045;-70
2023/12/03 17:51:28;;;;;;;20.30;11.80;;;;;;;-3.04;85.57;100216.44;218122;1254;140086;-76
2023/12/03 17:56:34;;;;;;;21.50;11.00;;;;;;;-3.03;85.68;100219.52;217863;1254;140482;-69
2023/12/03 18:01:40;;;;;;;18.60;10.60;;;;;;;-3.07;85.68;100220.18;218617;1258;141354;-72
2023/12/03 18:06:46;;;;;;;14.30;9.30;;;;;;;-3.11;85.55;100226.83;218432;1254;139871;-73
2023/12/03 18:11:50;;;;;;;17.10;10.20;;;;;;;-3.09;85.74;100229.21;218656;1258;140206;-72
2023/12/03 18:16:56;;;;;;;16.60;10.70;;;;;;;-3.04;85.73;100221.63;218406;1254;140915;-72
2023/12/03 18:22:01;;;;;;;16.40;10.90;;;;;;;-3.02;85.88;100221.33;219504;1254;139856;-74
2023/12/03 18:27:06;;;;;;;20.50;12.50;;;;;;;-3.02;85.80;100226.67;218498;1254;139935;-70
2023/12/03 18:32:10;;;;;;;18.20;10.30;;;;;;;-2.99;85.92;100231.50;218567;1257;604830;-72
2023/12/03 18:37:22;;;;;;;27.30;14.90;;;;;;;-2.98;85.75;100229.63;218459;1258;140508;-72
2023/12/03 18:42:29;;;;;;;15.40;8.80;;;;;;;-2.95;85.99;100231.50;218164;1254;141422;-74
2023/12/03 18:47:33;;;;;;;30.10;13.10;;;;;;;-2.98;86.12;100229.66;218672;1254;140864;-73
2023/12/03 18:52:40;;;;;;;18.30;8.90;;;;;;;-2.96;86.24;100226.23;219250;1257;140198;-71
2023/12/03 18:57:45;;;;;;;21.30;12.20;;;;;;;-2.95;86.20;100223.48;219132;1254;140432;-67
2023/12/03 19:02:51;;;;;;;14.20;8.30;;;;;;;-2.93;86.48;100226.40;219270;1258;140625;-70
2023/12/03 19:07:59;;;;;;;26.30;14.80;;;;;;;-2.93;86.42;100230.93;217965;1259;140848;-73
2023/12/03 19:13:09;;;;;;;26.20;13.40;;;;;;;-2.94;86.53;100226.52;218161;1254;139865;-72
2023/12/03 19:18:21;;;;;;;24.10;11.70;;;;;;;-2.93;86.51;100229.39;219221;1258;140311;-70
2023/12/03 19:23:25;;;;;;;50.10;20.20;;;;;;;-2.95;86.52;100227.13;218291;1258;140654;-66
2023/12/03 19:28:34;;;;;;;47.40;24.10;;;;;;;-2.97;86.63;100226.63;218376;1260;141718;-70
2023/12/03 19:33:39;;;;;;;27.90;16.80;;;;;;;-3.00;86.74;100236.43;218280;1260;140015;-72
2023/12/03 19:38:43;;;;;;;25.80;12.20;;;;;;;-3.01;86.86;100242.63;218817;1258;140104;-69
2023/12/03 19:43:47;;;;;;;19.70;11.80;;;;;;;-3.05;86.75;100244.17;218445;1254;140686;-71
2023/12/03 19:48:51;;;;;;;19.00;11.80;;;;;;;-3.06;86.89;100242.72;218132;1260;140855;-72
2023/12/03 19:53:56;;;;;;;18.90;12.00;;;;;;;-3.08;87.16;100247.89;218082;1259;139973;-66
2023/12/03 19:59:02;;;;;;;29.30;14.60;;;;;;;-3.08;87.17;100246.71;218037;1259;140273;-70
2023/12/03 20:04:08;;;;;;;22.10;11.60;;;;;;;-3.09;87.39;100244.52;217965;1259;139990;-71
2023/12/03 20:09:17;;;;;;;15.00;9.70;;;;;;;-3.11;88.38;100247.14;218611;1259;142338;-69
2023/12/03 20:14:27;;;;;;;17.90;10.10;;;;;;;-3.10;88.84;100244.45;217923;1255;139838;-70
2023/12/03 20:19:35;;;;;;;16.90;10.80;;;;;;;-3.07;88.53;100242.45;218795;1254;140228;-70
2023/12/03 20:24:41;;;;;;;24.30;13.10;;;;;;;-3.06;88.27;100247.03;218234;1254;140108;-69
2023/12/03 20:29:50;;;;;;;26.20;13.00;;;;;;;-3.03;88.15;100248.67;218761;1254;141191;-69
2023/12/03 20:34:55;;;;;;;22.40;11.40;;;;;;;-3.00;88.24;100250.20;218605;1254;139974;-69
2023/12/03 20:40:00;;;;;;;20.70;11.40;;;;;;;-3.00;87.99;100247.41;218714;1254;141645;-68
2023/12/03 20:45:06;;;;;;;19.30;11.40;;;;;;;-2.99;88.12;100244.56;218451;1255;140243;-70
2023/12/03 20:50:10;;;;;;;26.00;13.70;;;;;;;-2.96;88.07;100248.13;219007;1254;140621;-66
2023/12/03 20:55:18;;;;;;;20.80;12.40;;;;;;;-2.94;88.23;100246.22;218535;1254;140313;-72
2023/12/03 21:00:23;;;;;;;27.90;13.30;;;;;;;-2.95;88.07;100248.16;218364;1254;140137;-69
2023/12/03 21:05:29;;;;;;;18.60;13.30;;;;;;;-2.97;88.08;100244.84;218708;1258;140123;-68
2023/12/03 21:10:34;;;;;;;27.30;14.80;;;;;;;-2.94;88.17;100243.25;218625;1254;140005;-69
2023/12/03 21:15:38;;;;;;;18.30;11.10;;;;;;;-2.95;88.09;100241.38;218187;1258;140113;-70
2023/12/03 21:20:42;;;;;;;25.10;13.60;;;;;;;-2.95;88.32;100239.33;218125;1254;141048;-70
2023/12/03 21:25:48;;;;;;;71.20;30.10;;;;;;;-2.96;88.19;100240.06;218260;1254;140064;-68
2023/12/03 21:30:52;;;;;;;38.90;17.80;;;;;;;-2.96;88.22;100245.31;218334;1257;139927;-71
2023/12/03 21:35:57;;;;;;;33.70;21.90;;;;;;;-2.99;88.33;100249.72;218174;1254;139885;-70
2023/12/03 21:41:01;;;;;;;33.80;21.80;;;;;;;-3.00;88.45;100251.02;218132;1254;141201;-70
2023/12/03 21:46:06;;;;;;;26.00;15.70;;;;;;;-2.99;88.53;100258.75;218310;1255;152672;-68
2023/12/03 21:51:12;;;;;;;26.80;17.00;;;;;;;-2.99;88.50;100259.14;218106;1260;140182;-70
2023/12/03 21:56:19;;;;;;;31.60;16.30;;;;;;;-3.00;88.57;100261.30;218282;1255;140020;-67
2023/12/03 22:01:25;;;;;;;30.10;17.00;;;;;;;-3.02;88.64;100264.77;218178;1255;140026;-68
2023/12/03 22:06:31;;;;;;;27.80;17.70;;;;;;;-3.03;88.64;100264.18;218405;1254;140701;-68
2023/12/03 22:11:36;;;;;;;25.60;15.50;;;;;;;-3.03;88.45;100269.23;218129;1254;140082;-66
2023/12/03 22:16:42;;;;;;;24.20;13.50;;;;;;;-3.03;88.64;100275.14;218230;1254;140155;-67
2023/12/03 22:21:49;;;;;;;30.30;17.20;;;;;;;-3.00;88.66;100275.08;218792;1254;140389;-67
2023/12/03 22:26:55;;;;;;;28.10;16.80;;;;;;;-3.00;88.67;100276.95;218677;1254;140706;-70
2023/12/03 22:32:00;;;;;;;28.30;16.20;;;;;;;-2.96;88.97;100279.93;218009;1254;140369;-69
2023/12/03 22:37:05;;;;;;;28.40;15.70;;;;;;;-2.95;88.87;100279.14;218735;1254;140526;-68
2023/12/03 22:42:10;;;;;;;22.20;11.30;;;;;;;-2.95;88.67;100281.58;218684;1255;141617;-68
2023/12/03 22:47:15;;;;;;;21.90;13.60;;;;;;;-2.98;88.76;100285.33;218737;1254;140069;-66
2023/12/03 22:52:25;;;;;;;31.00;15.50;;;;;;;-2.98;88.86;100285.83;219013;1258;140657;-68